RV1CJ-15 Weather Reports


Display with metric or nautical units.
time (UTC)temp
F
wind
direction
speed
MPH
gust
MPH
rain 1hr
in
rain 24hr
in
rain mn
in
humidity
%
barometer
mb
20210918194007 29 67 0.0 57.0 0.00 0.00 0.00 87 1026.7
20210918193507 28 270 0.0 0.0 0.00 0.00 0.00 86 1026.6
20210918193006 28 292 0.0 0.0 0.00 0.00 0.00 86 1026.6
20210918192506 29 337 0.0 0.0 0.00 0.00 0.00 86 1026.6
20210918192006 29 292 0.0 0.0 0.00 0.00 0.00 86 1026.6
20210918191505 29 337 0.0 0.0 0.00 0.00 0.00 86 1026.6
20210918191005 29 337 0.0 0.0 0.00 0.00 0.00 87 1026.5
20210918190505 29 67 0.0 0.0 0.00 0.00 0.00 86 1026.6
20210918190005 29 67 0.0 57.0 0.00 0.00 0.00 86 1026.5
20210918185504 29 337 0.0 0.0 0.00 0.00 0.00 86 1026.6
20210918185004 29 337 0.0 0.0 0.00 0.00 0.00 86 1026.7
20210918184504 29 337 0.0 0.0 0.00 0.00 0.00 85 1026.7
20210918184003 29 337 0.0 0.0 0.00 0.00 0.00 85 1026.6
20210918183503 29 337 0.0 0.0 0.00 0.00 0.00 85 1026.6
20210918183003 30 337 0.0 0.0 0.00 0.00 0.00 85 1026.5
20210918182503 30 337 0.0 0.0 0.00 0.00 0.00 85 1026.4
20210918182002 30 337 0.0 0.0 0.00 0.00 0.00 85 1026.5
20210918181502 30 337 0.0 0.0 0.00 0.00 0.00 85 1026.6
20210918181002 30 337 0.0 0.0 0.00 0.00 0.00 84 1026.5
20210918180501 31 315 0.0 0.0 0.00 0.00 0.00 84 1026.4
20210918180001 31 337 0.0 0.0 0.00 0.00 0.00 84 1026.4
20210918175501 31 337 0.0 0.0 0.00 0.00 0.00 84 1026.4
20210918175001 31 315 0.0 0.0 0.00 0.00 0.00 84 1026.4
20210918174500 31 315 0.0 0.0 0.00 0.00 0.00 84 1026.4
20210918174000 31 337 0.0 0.0 0.00 0.00 0.00 84 1026.3
20210918173500 32 337 0.0 0.0 0.00 0.00 0.00 84 1026.4
20210918172959 32 337 57.0 57.0 0.00 0.00 0.00 84 1026.2
20210918172459 32 337 0.0 0.0 0.00 0.00 0.00 83 1026.2
20210918171959 32 315 0.0 0.0 0.00 0.00 0.00 83 1026.1
20210918171458 32 337 0.0 0.0 0.00 0.00 0.00 82 1026.1
20210918170958 33 270 0.0 0.0 0.00 0.00 0.00 82 1026.1
20210918170458 33 337 0.0 0.0 0.00 0.00 0.00 82 1026.1
20210918165958 33 337 57.0 57.0 0.00 0.00 0.00 81 1025.9
20210918165457 34 292 0.0 0.0 0.00 0.00 0.00 81 1026.0
20210918164957 34 337 0.0 0.0 0.00 0.00 0.00 81 1026.1
20210918164457 35 337 0.0 0.0 0.00 0.00 0.00 81 1026.0
20210918163956 35 337 0.0 0.0 0.00 0.00 0.00 80 1026.1
20210918163456 35 315 0.0 0.0 0.00 0.00 0.00 80 1026.1
20210918162956 36 337 0.0 0.0 0.00 0.00 0.00 79 1026.1
20210918162456 36 67 0.0 0.0 0.00 0.00 0.00 78 1026.1
20210918161955 36 67 0.0 0.0 0.00 0.00 0.00 78 1025.9
20210918161455 37 337 0.0 0.0 0.00 0.00 0.00 77 1026.0
20210918160955 37 337 0.0 0.0 0.00 0.00 0.00 75 1025.9
20210918160454 38 337 0.0 0.0 0.00 0.00 0.00 74 1026.0
20210918155954 39 337 0.0 0.0 0.00 0.00 0.00 73 1025.7
20210918155454 40 67 0.0 0.0 0.00 0.00 0.00 72 1025.7
20210918154953 41 337 0.0 0.0 0.00 0.00 0.00 71 1025.7
20210918154453 42 337 0.0 0.0 0.00 0.00 0.00 69 1025.8
20210918153953 43 90 0.0 2.0 0.00 0.00 0.00 69 1025.8
20210918153453 43 90 2.0 4.0 0.00 0.00 0.00 67 1025.9
20210918152952 44 90 2.0 5.0 0.00 0.00 0.00 67 1025.9
20210918152452 44 90 3.0 4.0 0.00 0.00 0.00 65 1025.9
20210918151952 45 112 2.0 100.0 0.00 0.00 0.00 64 1025.8
20210918151451 46 337 0.0 0.0 0.00 0.00 0.00 63 1025.8
20210918150951 46 337 0.0 0.0 0.00 0.00 0.00 61 1025.8
20210918150451 47 337 0.0 0.0 0.00 0.00 0.00 60 1025.8
20210918145950 48 337 0.0 0.0 0.00 0.00 0.00 58 1025.7
20210918145450 50 90 2.0 57.0 0.00 0.00 0.00 55 1025.7
20210918144950 52 112 1.0 8.0 0.00 0.00 0.00 53 1025.7
20210918144450 55 112 6.0 57.0 0.00 0.00 0.00 50 1025.8
20210918143949 57 112 6.0 6.0 0.00 0.00 0.00 50 1025.7
20210918143449 56 337 0.0 0.0 0.00 0.00 0.00 51 1025.8
20210918142949 54 90 2.0 57.0 0.00 0.00 0.00 53 1025.8
20210918142448 52 337 0.0 0.0 0.00 0.00 0.00 52 1025.9
20210918141948 56 112 2.0 5.0 0.00 0.00 0.00 48 1025.9
20210918141448 60 90 5.0 8.0 0.00 0.00 0.00 44 1025.9
20210918140948 64 67 5.0 57.0 0.00 0.00 0.00 42 1025.7
20210918140447 64 337 0.0 0.0 0.00 0.00 0.00 44 1025.8
20210918135947 62 112 0.0 4.0 0.00 0.00 0.00 45 1025.7
20210918135447 60 157 3.0 6.0 0.00 0.00 0.00 47 1025.7
20210918134946 58 90 4.0 57.0 0.00 0.00 0.00 50 1025.8
20210918134446 54 90 4.0 57.0 0.00 0.00 0.00 54 1025.8
20210918133946 51 337 0.0 0.0 0.00 0.00 0.00 54 1025.8
20210918133446 52 337 0.0 0.0 0.00 0.00 0.00 52 1025.7
20210918132945 55 90 5.0 85.0 0.00 0.00 0.00 49 1025.8
20210918132445 59 67 5.0 57.0 0.00 0.00 0.00 46 1025.9
20210918131945 62 337 0.0 0.0 0.00 0.00 0.00 44 1025.8
20210918131444 62 45 4.0 9.0 0.00 0.00 0.00 43 1025.8
20210918130944 60 45 3.0 85.0 0.00 0.00 0.00 48 1025.9
20210918130444 54 337 0.0 0.0 0.00 0.00 0.00 52 1025.9
20210918125943 54 337 57.0 57.0 0.00 0.00 0.00 49 1025.9
20210918125443 57 67 4.0 57.0 0.00 0.00 0.00 46 1026.0
20210918124943 61 90 6.0 57.0 0.00 0.00 0.00 43 1025.9
20210918124443 66 337 0.0 0.0 0.00 0.00 0.00 40 1025.9
20210918123942 66 112 8.0 11.0 0.00 0.00 0.00 42 1025.9
20210918123442 62 157 3.0 57.0 0.00 0.00 0.00 47 1025.9
20210918122942 57 67 3.0 57.0 0.00 0.00 0.00 52 1026.0
20210918122441 53 90 3.0 57.0 0.00 0.00 0.00 53 1025.9
20210918121941 54 90 5.0 9.0 0.00 0.00 0.00 51 1026.1
20210918121441 56 90 3.0 10.0 0.00 0.00 0.00 49 1026.0
20210918120941 58 90 4.0 57.0 0.00 0.00 0.00 46 1025.9
20210918120440 63 90 1.0 57.0 0.00 0.00 0.00 40 1025.9
20210918115940 71 67 2.0 8.0 0.00 0.00 0.00 39 1026.0
20210918115440 70 90 2.0 57.0 0.00 0.00 0.00 41 1026.0
20210918114939 68 202 1.0 85.0 0.00 0.00 0.00 44 1026.0
20210918114439 64 90 3.0 57.0 0.00 0.00 0.00 49 1026.2
20210918113939 57 67 2.0 57.0 0.00 0.00 0.00 54 1026.2
20210918113438 53 112 5.0 57.0 0.00 0.00 0.00 56 1026.3
20210918112938 54 270 57.0 57.0 0.00 0.00 0.00 55 1026.2
20210918112438 54 112 2.0 57.0 0.00 0.00 0.00 56 1026.2
20210918111938 53 67 2.0 85.0 0.00 0.00 0.00 58 1026.3
20210918111437 53 112 3.0 6.0 0.00 0.00 0.00 57 1026.3
20210918110937 54 337 0.0 0.0 0.00 0.00 0.00 56 1026.4
20210918110437 53 337 0.0 0.0 0.00 0.00 0.00 59 1026.4
20210918105936 52 67 3.0 57.0 0.00 0.00 0.00 60 1026.4
20210918105436 51 90 2.0 85.0 0.00 0.00 0.00 60 1026.3
20210918104936 51 315 0.0 0.0 0.00 0.00 0.00 59 1026.2
20210918104435 51 337 0.0 0.0 0.00 0.00 0.00 60 1026.2
20210918103935 52 337 0.0 0.0 0.00 0.00 0.00 59 1026.3
20210918103435 52 45 3.0 9.0 0.00 0.00 0.00 58 1026.2
20210918102934 53 337 0.0 0.0 0.00 0.00 0.00 59 1026.4
20210918102434 52 112 2.0 7.0 0.00 0.00 0.00 59 1026.2
20210918101934 52 67 1.0 5.0 0.00 0.00 0.00 60 1026.2
20210918101434 52 180 0.0 0.0 0.00 0.00 0.00 60 1026.2
20210918100933 53 90 6.0 6.0 0.00 0.00 0.00 59 1026.3
20210918100433 53 67 3.0 9.0 0.00 0.00 0.00 58 1026.2
20210918095933 54 90 9.0 9.0 0.00 0.00 0.00 59 1026.3
20210918095432 54 45 0.0 7.0 0.00 0.00 0.00 60 1026.3
20210918094932 53 90 3.0 7.0 0.00 0.00 0.00 63 1026.4
20210918094432 52 157 0.0 57.0 0.00 0.00 0.00 64 1026.3
20210918093932 52 135 2.0 57.0 0.00 0.00 0.00 64 1026.4
20210918093431 51 90 2.0 57.0 0.00 0.00 0.00 64 1026.2
20210918092931 51 337 0.0 0.0 0.00 0.00 0.00 64 1026.2
20210918092431 51 112 1.0 7.0 0.00 0.00 0.00 63 1026.3
20210918091930 51 135 2.0 57.0 0.00 0.00 0.00 62 1026.3
20210918091430 52 315 0.0 0.0 0.00 0.00 0.00 62 1026.5
20210918090930 53 90 5.0 9.0 0.00 0.00 0.00 62 1026.2
20210918090429 52 90 4.0 9.0 0.00 0.00 0.00 64 1026.3
20210918085929 50 337 0.0 0.0 0.00 0.00 0.00 65 1026.5
20210918085429 50 67 3.0 7.0 0.00 0.00 0.00 67 1026.4
20210918084929 49 337 0.0 0.0 0.00 0.00 0.00 70 1026.3
20210918084428 49 90 2.0 57.0 0.00 0.00 0.00 72 1026.4
20210918083928 49 67 0.0 57.0 0.00 0.00 0.00 73 1026.5
20210918083428 49 90 5.0 57.0 0.00 0.00 0.00 72 1026.5
20210918082927 49 67 3.0 4.0 0.00 0.00 0.00 73 1026.5
20210918082427 49 90 3.0 57.0 0.00 0.00 0.00 74 1026.5
20210918081927 49 45 1.0 57.0 0.00 0.00 0.00 74 1026.3
20210918081427 49 45 4.0 6.0 0.00 0.00 0.00 75 1026.5
20210918080926 49 315 0.0 0.0 0.00 0.00 0.00 76 1026.5
20210918080426 48 90 0.0 4.0 0.00 0.00 0.00 77 1026.5
20210918075926 48 112 2.0 57.0 0.00 0.00 0.00 77 1026.5
20210918075425 47 337 0.0 0.0 0.00 0.00 0.00 76 1026.4
20210918074925 48 112 1.0 3.0 0.00 0.00 0.00 75 1026.5
20210918074425 48 90 2.0 4.0 0.00 0.00 0.00 74 1026.5
20210918073924 49 337 0.0 0.0 0.00 0.00 0.00 73 1026.4
20210918073424 50 45 3.0 5.0 0.00 0.00 0.00 72 1026.4
20210918072924 52 112 2.0 8.0 0.00 0.00 0.00 71 1026.6
20210918072424 52 112 7.0 11.0 0.00 0.00 0.00 70 1026.3
20210918071923 53 67 3.0 7.0 0.00 0.00 0.00 73 1026.3
20210918071423 53 90 3.0 4.0 0.00 0.00 0.00 74 1026.5
20210918070923 52 112 2.0 7.0 0.00 0.00 0.00 75 1026.6
20210918070422 52 337 0.0 0.0 0.00 0.00 0.00 76 1026.3
20210918065922 51 315 0.0 0.0 0.00 0.00 0.00 77 1026.6
20210918065422 51 90 4.0 7.0 0.00 0.00 0.00 79 1026.6
20210918064921 51 45 3.0 5.0 0.00 0.00 0.00 81 1026.5
20210918064421 50 270 57.0 57.0 0.00 0.00 0.00 82 1026.4
20210918063921 50 45 0.0 4.0 0.00 0.00 0.00 84 1026.6
20210918063421 49 112 2.0 5.0 0.00 0.00 0.00 87 1026.7
20210918062920 48 90 2.0 4.0 0.00 0.00 0.00 89 1026.7
20210918062420 47 337 0.0 0.0 0.00 0.00 0.00 91 1026.5
20210918061920 46 112 2.0 57.0 0.00 0.00 0.00 92 1026.6
20210918061419 44 337 0.0 0.0 0.00 0.00 0.00 92 1026.8
20210918060919 42 337 0.0 0.0 0.00 0.00 0.00 93 1026.7
20210918060419 42 337 0.0 0.0 0.00 0.00 0.00 93 1026.8
20210918055919 41 112 0.0 0.0 0.00 0.00 0.00 93 1026.6
20210918055418 41 112 0.0 1.0 0.00 0.00 0.00 93 1026.7
20210918054918 40 337 0.0 0.0 0.00 0.00 0.00 93 1026.7
20210918054418 40 90 0.0 0.0 0.00 0.00 0.00 93 1026.6
20210918053917 40 337 0.0 0.0 0.00 0.00 0.00 93 1026.6
20210918053417 39 90 0.0 57.0 0.00 0.00 0.00 93 1026.7
20210918052917 39 315 0.0 0.0 0.00 0.00 0.00 93 1026.6
20210918052417 39 315 0.0 0.0 0.00 0.00 0.00 93 1026.7
20210918051916 39 337 0.0 0.0 0.00 0.00 0.00 93 1026.6
20210918051416 38 337 0.0 0.0 0.00 0.00 0.00 93 1026.5
20210918050916 38 67 0.0 57.0 0.00 0.00 0.00 93 1026.4
20210918050415 38 337 0.0 0.0 0.00 0.00 0.00 93 1026.3
20210918045915 37 337 0.0 0.0 0.00 0.00 0.00 93 1026.4
20210918045415 37 315 0.0 0.0 0.00 0.00 0.00 93 1026.3
20210918044914 37 337 57.0 57.0 0.00 0.00 0.00 93 1026.5
20210918044414 37 337 0.0 0.0 0.00 0.00 0.00 93 1026.4
20210918043914 37 337 0.0 0.0 0.00 0.00 0.00 93 1026.4
20210918043414 37 67 0.0 57.0 0.00 0.00 0.00 93 1026.3
20210918042913 37 337 0.0 0.0 0.00 0.00 0.00 93 1026.3
20210918042413 36 315 0.0 0.0 0.00 0.00 0.00 93 1026.2
20210918041913 36 337 0.0 0.0 0.00 0.00 0.00 92 1026.3
20210918041412 36 337 57.0 57.0 0.00 0.00 0.00 92 1026.3
20210918040912 36 67 0.0 0.0 0.00 0.00 0.00 92 1026.2
20210918040412 35 337 0.0 0.0 0.00 0.00 0.00 92 1026.2
20210918035912 35 67 0.0 57.0 0.00 0.00 0.00 92 1026.2
20210918035411 35 337 57.0 57.0 0.00 0.00 0.00 92 1026.2
20210918034911 35 337 57.0 57.0 0.00 0.00 0.00 92 1026.1
20210918034411 35 337 0.0 0.0 0.00 0.00 0.00 92 1026.2
20210918033910 35 337 0.0 0.0 0.00 0.00 0.00 92 1026.2
20210918033410 35 337 0.0 0.0 0.00 0.00 0.00 92 1026.0
20210918032910 35 337 0.0 0.0 0.00 0.00 0.00 92 1026.1
20210918032409 35 337 0.0 0.0 0.00 0.00 0.00 92 1026.0
20210918031909 34 315 0.0 0.0 0.00 0.00 0.00 92 1026.0
20210918031409 34 337 0.0 0.0 0.00 0.00 0.00 92 1025.9
20210918030909 34 337 0.0 0.0 0.00 0.00 0.00 92 1025.9
20210918030408 34 337 57.0 57.0 0.00 0.00 0.00 91 1026.0
20210918025908 34 337 0.0 0.0 0.00 0.00 0.00 91 1026.0
20210918025408 34 67 0.0 57.0 0.00 0.00 0.00 91 1026.0
20210918024907 33 337 0.0 0.0 0.00 0.00 0.00 91 1026.1
20210918024407 33 67 0.0 0.0 0.00 0.00 0.00 91 1025.9
20210918023907 33 337 0.0 0.0 0.00 0.00 0.00 91 1025.8
20210918023406 33 337 0.0 0.0 0.00 0.00 0.00 91 1025.8
20210918022906 32 337 0.0 0.0 0.00 0.00 0.00 91 1025.8
20210918022406 32 337 0.0 0.0 0.00 0.00 0.00 91 1025.8
20210918021906 32 337 0.0 0.0 0.00 0.00 0.00 91 1025.7
20210918021405 32 337 0.0 0.0 0.00 0.00 0.00 91 1025.7
20210918020905 32 337 0.0 0.0 0.00 0.00 0.00 91 1025.6
20210918020405 33 337 0.0 0.0 0.00 0.00 0.00 91 1025.5
20210918015904 32 337 0.0 0.0 0.00 0.00 0.00 91 1025.5
20210918015404 32 337 0.0 0.0 0.00 0.00 0.00 91 1025.4
20210918014904 32 337 57.0 57.0 0.00 0.00 0.00 91 1025.6
20210918014404 33 337 0.0 0.0 0.00 0.00 0.00 91 1025.5
20210918013903 33 337 0.0 0.0 0.00 0.00 0.00 91 1025.4
20210918013403 33 270 0.0 0.0 0.00 0.00 0.00 90 1025.4
20210918012903 34 315 0.0 0.0 0.00 0.00 0.00 90 1025.4
20210918012402 34 337 0.0 0.0 0.00 0.00 0.00 91 1025.4
20210918011902 34 337 0.0 0.0 0.00 0.00 0.00 91 1025.3
20210918011402 35 315 0.0 0.0 0.00 0.00 0.00 90 1025.3
20210918010902 35 337 0.0 0.0 0.00 0.00 0.00 90 1025.4
20210918010401 35 337 0.0 0.0 0.00 0.00 0.00 90 1025.2
20210918005901 35 337 0.0 0.0 0.00 0.00 0.00 90 1025.3
20210918005401 35 292 0.0 0.0 0.00 0.00 0.00 90 1025.2
20210918004900 36 337 0.0 0.0 0.00 0.00 0.00 90 1025.2
20210918004400 37 337 0.0 0.0 0.00 0.00 0.00 91 1025.1
20210918003900 37 337 0.0 0.0 0.00 0.00 0.00 91 1025.2
20210918003359 37 337 0.0 0.0 0.00 0.00 0.00 91 1025.2
20210918002859 38 337 0.0 0.0 0.00 0.00 0.00 91 1025.2
20210918002359 39 337 0.0 0.0 0.00 0.00 0.00 91 1025.2
20210918001859 39 337 0.0 0.0 0.00 0.00 0.00 91 1025.3
20210918001358 40 337 0.0 0.0 0.00 0.00 0.00 91 1025.1
20210918000858 40 337 0.0 0.0 0.00 0.00 0.00 91 1025.1
20210918000358 40 337 0.0 0.0 0.00 0.00 0.00 91 1025.0
20210917235857 40 337 0.0 0.0 0.00 0.00 0.00 91 1025.3
20210917235357 40 45 1.0 1.0 0.00 0.00 0.00 91 1025.3
20210917234857 40 337 0.0 0.0 0.00 0.00 0.00 91 1025.3
20210917234357 40 315 0.0 0.0 0.00 0.00 0.00 91 1025.3
20210917233856 40 337 0.0 0.0 0.00 0.00 0.00 92 1025.2
20210917233356 40 337 0.0 0.0 0.00 0.00 0.00 92 1025.2
20210917232856 40 315 0.0 0.0 0.00 0.00 0.00 92 1025.2
20210917232355 40 337 0.0 0.0 0.00 0.00 0.00 92 1025.1
20210917231855 40 337 0.0 0.0 0.00 0.00 0.00 92 1025.1
20210917231355 40 67 0.0 0.0 0.00 0.00 0.00 92 1025.0
20210917230854 40 337 0.0 0.0 0.00 0.00 0.00 92 1025.0
20210917230354 40 337 0.0 0.0 0.00 0.00 0.00 92 1025.0
20210917225854 40 337 0.0 0.0 0.00 0.00 0.00 91 1024.9
20210917225354 40 67 0.0 0.0 0.00 0.00 0.00 92 1025.1
20210917224853 40 337 0.0 0.0 0.00 0.00 0.00 92 1024.9
20210917224353 40 337 0.0 0.0 0.00 0.00 0.00 92 1024.9
20210917223853 40 337 0.0 0.0 0.00 0.00 0.00 91 1024.9
20210917223352 40 90 0.0 0.0 0.00 0.00 0.00 91 1025.0
20210917222852 39 337 0.0 0.0 0.00 0.00 0.00 91 1024.9
20210917222352 39 90 0.0 2.0 0.00 0.00 0.00 91 1024.7
20210917221852 39 337 0.0 0.0 0.00 0.00 0.00 91 1024.9
20210917221351 39 67 1.0 1.0 0.00 0.00 0.00 91 1024.8
20210917220851 39 90 1.0 1.0 0.00 0.00 0.00 91 1024.7
20210917220351 39 337 0.0 0.0 0.00 0.00 0.00 91 1024.7
20210917215850 39 337 0.0 0.0 0.00 0.00 0.00 91 1024.6
20210917215350 39 270 0.0 0.0 0.00 0.00 0.00 91 1024.6
20210917214850 39 337 0.0 0.0 0.00 0.00 0.00 91 1024.7
20210917214349 39 337 0.0 0.0 0.00 0.00 0.00 91 1024.5
20210917213849 38 337 0.0 0.0 0.00 0.00 0.00 91 1024.7
20210917213349 38 315 0.0 0.0 0.00 0.00 0.00 90 1024.6
20210917212849 38 0 0.0 0.0 0.00 0.00 0.00 90 1024.5
20210917212348 38 337 0.0 0.0 0.00 0.00 0.00 90 1024.6
20210917211848 38 337 0.0 0.0 0.00 0.00 0.00 90 1024.6
20210917211348 38 315 0.0 0.0 0.00 0.00 0.00 90 1024.4
20210917210847 38 337 0.0 0.0 0.00 0.00 0.00 90 1024.4
20210917210347 38 337 0.0 0.0 0.00 0.00 0.00 90 1024.3
20210917205847 38 67 0.0 1.0 0.00 0.00 0.00 90 1024.3
20210917205347 38 292 0.0 0.0 0.00 0.00 0.00 90 1024.3
20210917204846 38 337 0.0 0.0 0.00 0.00 0.00 90 1024.2
20210917204346 38 337 0.0 0.0 0.00 0.00 0.00 90 1024.3
20210917203846 39 337 0.0 0.0 0.00 0.00 0.00 90 1024.2
20210917203345 39 337 0.0 0.0 0.00 0.00 0.00 90 1024.2
20210917202845 39 315 0.0 0.0 0.00 0.00 0.00 90 1024.3
20210917202345 39 67 0.0 0.0 0.00 0.00 0.00 90 1024.1
20210917201844 40 337 0.0 0.0 0.00 0.00 0.00 90 1024.3
20210917201344 40 337 0.0 0.0 0.00 0.00 0.00 90 1024.3
20210917200844 40 337 0.0 0.0 0.00 0.00 0.00 90 1024.3
20210917194507 40 337 0.0 0.0 0.00 0.00 0.00 90 1023.8